Time;durP1;ratioP1;P1;durP2;ratioP2;P2;SDS_P1;SDS_P2;PMS_P1;PMS_P2;Temp;Humidity;BMP_temperature;BMP_pressure;BME280_temperature;BME280_humidity;BME280_pressure;Samples;Min_cycle;Max_cycle;Signal;HPM_P1;HPM_P2
2022/03/04 00:01:46;;;;;;;37.60;13.85;;;;;;;;;;5114106;27;20041;-82
2022/03/04 00:04:13;;;;;;;36.05;14.40;;;;;;;;;;5118248;27;20031;-82
2022/03/04 00:06:39;;;;;;;38.47;14.82;;;;;;;;;;5104613;27;20036;-82
2022/03/04 00:09:04;;;;;;;33.70;14.80;;;;;;;;;;5107186;27;20050;-81
2022/03/04 00:11:29;;;;;;;31.67;14.30;;;;;;;;;;5100120;27;20031;-81
2022/03/04 00:13:55;;;;;;;43.13;15.57;;;;;;;;;;5111122;27;20058;-82
2022/03/04 00:16:20;;;;;;;37.17;15.13;;;;;;;;;;5101331;27;20032;-82
2022/03/04 00:18:46;;;;;;;35.38;15.57;;;;;;;;;;5104560;28;20051;-82
2022/03/04 00:21:11;;;;;;;34.85;15.13;;;;;;;;;;5102680;28;20051;-82
2022/03/04 00:23:37;;;;;;;41.08;16.55;;;;;;;;;;5104315;27;20031;-82
2022/03/04 00:26:04;;;;;;;35.97;15.25;;;;;;;;;;5108212;27;20028;-82
2022/03/04 00:28:29;;;;;;;37.55;15.63;;;;;;;;;;5109304;27;20497;-82
2022/03/04 00:30:54;;;;;;;39.70;16.02;;;;;;;;;;5107326;27;20061;-82
2022/03/04 00:33:20;;;;;;;35.85;15.15;;;;;;;;;;5100908;27;20043;-81
2022/03/04 00:35:45;;;;;;;34.50;14.75;;;;;;;;;;5104612;28;20043;-82
2022/03/04 00:38:11;;;;;;;36.08;14.25;;;;;;;;;;5102200;27;20104;-82
2022/03/04 00:40:36;;;;;;;34.33;14.73;;;;;;;;;;5103555;28;20036;-81
2022/03/04 00:43:01;;;;;;;35.80;14.50;;;;;;;;;;5104234;27;20035;-82
2022/03/04 00:45:27;;;;;;;35.63;14.77;;;;;;;;;;5103327;27;20555;-82
2022/03/04 00:47:52;;;;;;;34.25;15.23;;;;;;;;;;5101540;28;20024;-82
2022/03/04 00:50:17;;;;;;;34.40;14.27;;;;;;;;;;5104812;28;20080;-82
2022/03/04 00:52:43;;;;;;;33.97;14.90;;;;;;;;;;5107404;27;20031;-82
2022/03/04 00:55:09;;;;;;;30.80;13.95;;;;;;;;;;5107138;27;20104;-82
2022/03/04 00:57:35;;;;;;;49.58;14.98;;;;;;;;;;5103180;27;20544;-82
2022/03/04 01:00:00;;;;;;;36.17;15.60;;;;;;;;;;5106125;27;20031;-82
2022/03/04 01:02:25;;;;;;;39.80;16.50;;;;;;;;;;5103298;27;20073;-81
2022/03/04 01:04:51;;;;;;;39.30;17.08;;;;;;;;;;5076893;28;20108;-82
2022/03/04 01:07:16;;;;;;;37.25;15.38;;;;;;;;;;5103536;28;20043;-82
2022/03/04 01:09:42;;;;;;;35.20;14.50;;;;;;;;;;5115773;27;20201;-82
2022/03/04 01:12:08;;;;;;;32.22;13.52;;;;;;;;;;5104358;27;20036;-82
2022/03/04 01:14:33;;;;;;;30.95;14.20;;;;;;;;;;5110493;27;20020;-81
2022/03/04 01:16:59;;;;;;;38.92;14.88;;;;;;;;;;5107459;27;20126;-82
2022/03/04 01:19:24;;;;;;;35.47;15.30;;;;;;;;;;5110129;27;20024;-81
2022/03/04 01:21:49;;;;;;;42.85;16.25;;;;;;;;;;5108801;27;20054;-82
2022/03/04 01:24:15;;;;;;;36.85;15.45;;;;;;;;;;5109992;27;20754;-82
2022/03/04 01:26:40;;;;;;;36.35;16.02;;;;;;;;;;5114381;27;20703;-82
2022/03/04 01:29:06;;;;;;;39.30;15.23;;;;;;;;;;5115469;27;20034;-81
2022/03/04 01:31:31;;;;;;;36.90;15.27;;;;;;;;;;5109973;27;20525;-82
2022/03/04 01:33:56;;;;;;;35.15;15.48;;;;;;;;;;5123830;27;20504;-82
2022/03/04 01:36:22;;;;;;;39.95;15.77;;;;;;;;;;5125990;27;20032;-82
2022/03/04 01:38:47;;;;;;;38.63;16.10;;;;;;;;;;5119137;27;20031;-82
2022/03/04 01:41:13;;;;;;;41.25;16.30;;;;;;;;;;5116785;27;20045;-81
2022/03/04 01:43:38;;;;;;;43.67;15.95;;;;;;;;;;5108245;27;20766;-82
2022/03/04 01:46:12;;;;;;;43.78;17.10;;;;;;;;;;5095325;27;20059;-82
2022/03/04 01:48:37;;;;;;;47.08;17.70;;;;;;;;;;5092019;28;20089;-82
2022/03/04 01:51:03;;;;;;;37.92;16.30;;;;;;;;;;5100898;28;20044;-82
2022/03/04 01:53:28;;;;;;;40.90;16.88;;;;;;;;;;5093988;28;20060;-81
2022/03/04 01:55:53;;;;;;;42.72;16.60;;;;;;;;;;5086448;28;20404;-82
2022/03/04 01:58:19;;;;;;;37.15;16.27;;;;;;;;;;5087253;28;20148;-82
2022/03/04 02:00:44;;;;;;;40.40;16.55;;;;;;;;;;5086511;28;20054;-82
2022/03/04 02:03:11;;;;;;;40.75;17.45;;;;;;;;;;5098522;28;20036;-82
2022/03/04 02:05:36;;;;;;;42.70;16.58;;;;;;;;;;5092570;28;20024;-82
2022/03/04 02:08:01;;;;;;;38.50;16.48;;;;;;;;;;5093421;28;20485;-81
2022/03/04 02:10:27;;;;;;;41.40;16.60;;;;;;;;;;5097987;27;20540;-82
2022/03/04 02:12:53;;;;;;;47.05;18.60;;;;;;;;;;5084604;28;20059;-82
2022/03/04 02:15:18;;;;;;;44.47;18.15;;;;;;;;;;5093147;27;20030;-82
2022/03/04 02:17:43;;;;;;;46.83;17.83;;;;;;;;;;5113473;27;20119;-82
2022/03/04 02:20:09;;;;;;;39.35;16.85;;;;;;;;;;5105646;28;20517;-81
2022/03/04 02:22:35;;;;;;;41.80;16.50;;;;;;;;;;5106432;27;20573;-82
2022/03/04 02:25:01;;;;;;;44.72;17.30;;;;;;;;;;5116673;27;20036;-82
2022/03/04 02:27:26;;;;;;;45.22;17.50;;;;;;;;;;5102482;28;20080;-81
2022/03/04 02:29:52;;;;;;;40.17;16.95;;;;;;;;;;5104727;28;20096;-82
2022/03/04 02:32:18;;;;;;;41.78;18.02;;;;;;;;;;5107137;28;20027;-82
2022/03/04 02:34:43;;;;;;;38.58;17.13;;;;;;;;;;5094748;28;20513;-82
2022/03/04 02:37:08;;;;;;;43.10;17.80;;;;;;;;;;5097547;27;20024;-82
2022/03/04 02:39:34;;;;;;;44.25;17.83;;;;;;;;;;5098458;27;20035;-82
2022/03/04 02:41:59;;;;;;;39.28;17.25;;;;;;;;;;5078618;28;20083;-82
2022/03/04 02:44:24;;;;;;;47.33;17.77;;;;;;;;;;5090839;27;20028;-81
2022/03/04 02:46:50;;;;;;;41.30;17.33;;;;;;;;;;5100892;28;20102;-81
2022/03/04 02:49:15;;;;;;;42.50;17.27;;;;;;;;;;5104236;27;20051;-81
2022/03/04 02:51:40;;;;;;;46.17;17.63;;;;;;;;;;5100832;28;20039;-82
2022/03/04 02:54:06;;;;;;;49.42;18.13;;;;;;;;;;5100719;28;20536;-82
2022/03/04 02:56:32;;;;;;;41.22;17.02;;;;;;;;;;5080665;28;20021;-82
2022/03/04 02:58:57;;;;;;;45.38;17.70;;;;;;;;;;5107693;28;20071;-82
2022/03/04 03:01:24;;;;;;;39.50;17.25;;;;;;;;;;5111042;27;20081;-82
2022/03/04 03:03:50;;;;;;;44.75;17.15;;;;;;;;;;5113180;27;20039;-81
2022/03/04 03:06:15;;;;;;;40.83;16.83;;;;;;;;;;5123015;27;20031;-81
2022/03/04 03:08:40;;;;;;;43.92;17.58;;;;;;;;;;5108309;27;20549;-82
2022/03/04 03:11:06;;;;;;;42.38;16.80;;;;;;;;;;5104752;28;20024;-82
2022/03/04 03:13:31;;;;;;;43.78;16.35;;;;;;;;;;5097636;27;20039;-81
2022/03/04 03:15:57;;;;;;;43.97;17.20;;;;;;;;;;5096413;27;20508;-82
2022/03/04 03:18:22;;;;;;;43.47;16.83;;;;;;;;;;5109392;28;20818;-82
2022/03/04 03:20:48;;;;;;;44.10;17.77;;;;;;;;;;5112126;27;20073;-82
2022/03/04 03:23:13;;;;;;;40.05;16.95;;;;;;;;;;5110227;27;20028;-81
2022/03/04 03:25:38;;;;;;;43.17;17.45;;;;;;;;;;5104827;27;20036;-81
2022/03/04 03:28:04;;;;;;;41.22;17.02;;;;;;;;;;5105035;28;20527;-82
2022/03/04 03:30:30;;;;;;;40.63;17.67;;;;;;;;;;5105791;27;20441;-82
2022/03/04 03:32:56;;;;;;;40.17;15.63;;;;;;;;;;5111572;27;20035;-82
2022/03/04 03:35:22;;;;;;;35.70;15.90;;;;;;;;;;5109981;27;20019;-78
2022/03/04 03:37:47;;;;;;;35.63;15.70;;;;;;;;;;5108181;28;20027;-82
2022/03/04 03:40:13;;;;;;;41.78;16.48;;;;;;;;;;5107127;27;20028;-82
2022/03/04 03:42:42;;;;;;;40.65;16.60;;;;;;;;;;5109236;27;20042;-82
2022/03/04 03:45:10;;;;;;;40.20;16.20;;;;;;;;;;5102491;27;20031;-82
2022/03/04 03:47:37;;;;;;;42.03;17.20;;;;;;;;;;5101117;27;20368;-81
2022/03/04 03:50:03;;;;;;;36.00;15.80;;;;;;;;;;5105637;28;20131;-82
2022/03/04 03:52:28;;;;;;;40.10;15.63;;;;;;;;;;5104479;27;20487;-81
2022/03/04 03:54:54;;;;;;;40.50;16.67;;;;;;;;;;5105867;27;20040;-82
2022/03/04 03:57:19;;;;;;;39.50;16.60;;;;;;;;;;5100830;27;20044;-82
2022/03/04 03:59:44;;;;;;;38.60;16.08;;;;;;;;;;5101445;27;20032;-79
2022/03/04 04:02:10;;;;;;;42.85;16.35;;;;;;;;;;5108656;27;20019;-82
2022/03/04 04:04:35;;;;;;;38.65;15.73;;;;;;;;;;5110246;28;20035;-81
2022/03/04 04:07:04;;;;;;;43.50;15.20;;;;;;;;;;5105512;27;20769;-80
2022/03/04 04:09:30;;;;;;;38.00;15.35;;;;;;;;;;5105086;27;20042;-82
2022/03/04 04:11:55;;;;;;;42.53;16.00;;;;;;;;;;5102552;27;20028;-82
2022/03/04 04:14:21;;;;;;;36.00;16.13;;;;;;;;;;5117323;27;20026;-81
2022/03/04 04:16:46;;;;;;;39.53;15.65;;;;;;;;;;5105618;27;20044;-82
2022/03/04 04:19:12;;;;;;;40.20;15.88;;;;;;;;;;5109487;28;20028;-81
2022/03/04 04:21:37;;;;;;;37.53;15.68;;;;;;;;;;5108734;27;20122;-81
2022/03/04 04:24:03;;;;;;;37.47;16.42;;;;;;;;;;5115334;27;20492;-81
2022/03/04 04:26:30;;;;;;;40.20;15.52;;;;;;;;;;5103486;27;20023;-81
2022/03/04 04:28:55;;;;;;;42.53;17.05;;;;;;;;;;5106873;27;20030;-82
2022/03/04 04:31:20;;;;;;;37.53;16.00;;;;;;;;;;5106286;27;20039;-82
2022/03/04 04:33:46;;;;;;;34.58;15.70;;;;;;;;;;5092763;28;20043;-81
2022/03/04 04:36:11;;;;;;;46.70;17.23;;;;;;;;;;5091160;28;20408;-81
2022/03/04 04:38:37;;;;;;;36.78;14.73;;;;;;;;;;5103198;27;20551;-81
2022/03/04 04:41:02;;;;;;;36.17;15.07;;;;;;;;;;5101309;28;20024;-79
2022/03/04 04:43:27;;;;;;;37.72;15.85;;;;;;;;;;5103635;28;20449;-81
2022/03/04 04:45:53;;;;;;;41.97;16.30;;;;;;;;;;5107800;27;20032;-81
2022/03/04 04:48:19;;;;;;;39.50;16.25;;;;;;;;;;5106242;27;20058;-81
2022/03/04 04:50:44;;;;;;;43.17;16.15;;;;;;;;;;5106641;27;20618;-77
2022/03/04 04:53:10;;;;;;;39.92;16.17;;;;;;;;;;5103826;27;20023;-82
2022/03/04 04:55:35;;;;;;;39.72;16.35;;;;;;;;;;5105956;27;20204;-81
2022/03/04 04:58:00;;;;;;;39.83;15.60;;;;;;;;;;5103899;28;20058;-82
2022/03/04 05:00:26;;;;;;;39.42;16.23;;;;;;;;;;5101407;27;20121;-82
2022/03/04 05:02:52;;;;;;;38.22;15.50;;;;;;;;;;5107547;27;20038;-81
2022/03/04 05:05:18;;;;;;;38.10;15.93;;;;;;;;;;5109884;27;20030;-82
2022/03/04 05:07:43;;;;;;;37.85;15.10;;;;;;;;;;5109346;27;20413;-82
2022/03/04 05:10:08;;;;;;;37.88;15.73;;;;;;;;;;5100947;27;20417;-82
2022/03/04 05:12:34;;;;;;;36.20;16.48;;;;;;;;;;5106989;27;20031;-81
2022/03/04 05:14:59;;;;;;;46.47;16.10;;;;;;;;;;5103984;27;20534;-82
2022/03/04 05:17:25;;;;;;;41.13;14.60;;;;;;;;;;5104371;27;20024;-81
2022/03/04 05:19:51;;;;;;;41.13;15.65;;;;;;;;;;5109840;28;20049;-82
2022/03/04 05:22:17;;;;;;;40.53;15.88;;;;;;;;;;5108385;28;20287;-82
2022/03/04 05:24:42;;;;;;;38.90;16.25;;;;;;;;;;5120474;27;20040;-81
2022/03/04 05:27:08;;;;;;;36.20;14.07;;;;;;;;;;5102898;27;20027;-82
2022/03/04 05:29:33;;;;;;;40.40;15.82;;;;;;;;;;5112414;27;20027;-81
2022/03/04 05:31:59;;;;;;;37.67;15.40;;;;;;;;;;5113911;27;20110;-81
2022/03/04 05:34:25;;;;;;;40.25;16.13;;;;;;;;;;5104873;27;20062;-81
2022/03/04 05:36:50;;;;;;;37.42;15.70;;;;;;;;;;5104211;28;20554;-81
2022/03/04 05:39:16;;;;;;;39.42;16.10;;;;;;;;;;5099399;28;20040;-81
2022/03/04 05:41:41;;;;;;;44.47;16.15;;;;;;;;;;5098957;27;20054;-82
2022/03/04 05:44:07;;;;;;;43.88;15.40;;;;;;;;;;5099431;28;20450;-82
2022/03/04 05:46:32;;;;;;;36.88;14.80;;;;;;;;;;5103550;28;20044;-82
2022/03/04 05:48:58;;;;;;;35.95;14.80;;;;;;;;;;5102722;28;20127;-81
2022/03/04 05:51:23;;;;;;;34.67;15.13;;;;;;;;;;5104135;27;20424;-82
2022/03/04 05:53:49;;;;;;;39.35;15.48;;;;;;;;;;5093181;28;20048;-82
2022/03/04 05:56:15;;;;;;;35.40;14.38;;;;;;;;;;5103581;28;20057;-82
2022/03/04 05:58:40;;;;;;;34.10;14.82;;;;;;;;;;5107795;28;20075;-81
2022/03/04 06:01:06;;;;;;;33.90;14.32;;;;;;;;;;5109210;27;20063;-81
2022/03/04 06:03:32;;;;;;;44.17;15.90;;;;;;;;;;5095033;28;20517;-82
2022/03/04 06:05:58;;;;;;;35.60;14.65;;;;;;;;;;5105225;27;20103;-82
2022/03/04 06:08:23;;;;;;;37.92;15.07;;;;;;;;;;5106412;27;20102;-81
2022/03/04 06:10:49;;;;;;;43.38;15.07;;;;;;;;;;5102033;27;20050;-81
2022/03/04 06:13:14;;;;;;;35.13;14.25;;;;;;;;;;5108611;27;20081;-81
2022/03/04 06:15:39;;;;;;;34.47;14.73;;;;;;;;;;5117610;27;20092;-82
2022/03/04 06:18:05;;;;;;;36.10;14.27;;;;;;;;;;5111823;27;20081;-82
2022/03/04 06:20:30;;;;;;;40.88;14.77;;;;;;;;;;5104635;27;20016;-81
2022/03/04 06:22:56;;;;;;;34.45;14.52;;;;;;;;;;5109413;27;20449;-81
2022/03/04 06:25:21;;;;;;;40.50;14.85;;;;;;;;;;5098347;27;20024;-82
2022/03/04 06:27:54;;;;;;;35.78;14.95;;;;;;;;;;5089877;27;20417;-81
2022/03/04 06:30:19;;;;;;;31.77;13.98;;;;;;;;;;5098261;28;20035;-81
2022/03/04 06:32:45;;;;;;;40.33;14.98;;;;;;;;;;5102297;27;20390;-82
2022/03/04 06:35:10;;;;;;;32.10;14.38;;;;;;;;;;5097873;28;20012;-82
2022/03/04 06:37:36;;;;;;;34.42;14.73;;;;;;;;;;5105581;27;20463;-82
2022/03/04 06:40:03;;;;;;;35.28;14.88;;;;;;;;;;5117717;27;20514;-81
2022/03/04 06:42:29;;;;;;;41.50;15.77;;;;;;;;;;5122572;27;20119;-81
2022/03/04 06:44:55;;;;;;;38.35;14.38;;;;;;;;;;5109797;27;20032;-81
2022/03/04 06:47:20;;;;;;;40.97;15.45;;;;;;;;;;5104935;28;20105;-81
2022/03/04 06:49:46;;;;;;;33.92;14.10;;;;;;;;;;5105803;28;21061;-81
2022/03/04 06:52:11;;;;;;;39.40;15.43;;;;;;;;;;5098107;28;20043;-81
2022/03/04 06:54:39;;;;;;;34.70;14.35;;;;;;;;;;5103869;27;20046;-81
2022/03/04 06:57:04;;;;;;;40.60;14.65;;;;;;;;;;5109804;27;20031;-82
2022/03/04 06:59:30;;;;;;;42.17;16.10;;;;;;;;;;5108489;27;20075;-82
2022/03/04 07:01:56;;;;;;;37.35;15.35;;;;;;;;;;5101623;27;20078;-75
2022/03/04 07:04:22;;;;;;;39.53;15.18;;;;;;;;;;5104148;28;20112;-75
2022/03/04 07:06:47;;;;;;;44.58;15.88;;;;;;;;;;5110362;27;20740;-77
2022/03/04 07:09:12;;;;;;;44.85;15.18;;;;;;;;;;5102139;27;20036;-78
2022/03/04 07:11:38;;;;;;;39.22;14.48;;;;;;;;;;5094320;27;20422;-77
2022/03/04 07:14:03;;;;;;;45.90;15.10;;;;;;;;;;5102328;27;20084;-74
2022/03/04 07:16:29;;;;;;;35.90;14.45;;;;;;;;;;5108780;27;20132;-74
2022/03/04 07:18:55;;;;;;;35.13;15.07;;;;;;;;;;5101140;27;20524;-74
2022/03/04 07:21:20;;;;;;;43.13;16.65;;;;;;;;;;5107916;27;20114;-77
2022/03/04 07:23:45;;;;;;;40.35;15.15;;;;;;;;;;5101977;27;20120;-78
2022/03/04 07:26:12;;;;;;;38.47;15.77;;;;;;;;;;5106482;27;20028;-75
2022/03/04 07:28:37;;;;;;;38.40;15.35;;;;;;;;;;5099918;28;20051;-74
2022/03/04 07:31:03;;;;;;;42.65;15.35;;;;;;;;;;5105825;27;20048;-76
2022/03/04 07:33:28;;;;;;;37.20;14.90;;;;;;;;;;5110169;27;20154;-75
2022/03/04 07:35:54;;;;;;;39.70;14.18;;;;;;;;;;5100499;28;20176;-74
2022/03/04 07:38:19;;;;;;;38.03;15.20;;;;;;;;;;5097967;27;20061;-75
2022/03/04 07:40:45;;;;;;;39.08;15.93;;;;;;;;;;5100617;28;20489;-75
2022/03/04 07:43:11;;;;;;;37.67;15.48;;;;;;;;;;5091579;27;20066;-75
2022/03/04 07:45:36;;;;;;;38.90;14.57;;;;;;;;;;5096259;27;20036;-75
2022/03/04 07:48:02;;;;;;;43.40;15.93;;;;;;;;;;5092318;27;20035;-75
2022/03/04 07:50:27;;;;;;;37.03;15.93;;;;;;;;;;5101456;27;20165;-75
2022/03/04 07:52:53;;;;;;;48.03;15.73;;;;;;;;;;5093515;28;20099;-75
2022/03/04 07:55:18;;;;;;;37.67;14.25;;;;;;;;;;5098609;27;20066;-75
2022/03/04 07:57:44;;;;;;;39.05;15.18;;;;;;;;;;5094228;28;20055;-75
2022/03/04 08:00:13;;;;;;;38.40;14.38;;;;;;;;;;5104331;27;20039;-76
2022/03/04 08:02:39;;;;;;;43.35;15.68;;;;;;;;;;5100820;27;20048;-77
2022/03/04 08:05:08;;;;;;;40.55;14.25;;;;;;;;;;5090818;27;20020;-78
2022/03/04 08:07:34;;;;;;;42.75;14.23;;;;;;;;;;5096436;27;20431;-73
2022/03/04 08:09:59;;;;;;;41.63;15.48;;;;;;;;;;5093974;27;20454;-78
2022/03/04 08:12:25;;;;;;;38.30;15.45;;;;;;;;;;5101202;27;20560;-78
2022/03/04 08:14:51;;;;;;;36.55;15.13;;;;;;;;;;5100637;27;20095;-78
2022/03/04 08:17:16;;;;;;;40.83;14.70;;;;;;;;;;5095981;27;20043;-76
2022/03/04 08:19:42;;;;;;;38.15;16.42;;;;;;;;;;5089691;27;20093;-77
2022/03/04 08:22:09;;;;;;;35.22;14.48;;;;;;;;;;5097029;28;20036;-78
2022/03/04 08:24:35;;;;;;;39.67;14.10;;;;;;;;;;5099370;27;20032;-76
2022/03/04 08:27:00;;;;;;;39.50;14.38;;;;;;;;;;5106125;27;20116;-82
2022/03/04 08:29:26;;;;;;;30.17;12.88;;;;;;;;;;5096997;27;20040;-75
2022/03/04 08:31:51;;;;;;;35.05;13.02;;;;;;;;;;5118952;27;20023;-77
2022/03/04 08:34:17;;;;;;;30.23;12.57;;;;;;;;;;5103021;27;20074;-77
2022/03/04 08:36:42;;;;;;;39.75;15.70;;;;;;;;;;5095393;27;20043;-77
2022/03/04 08:39:08;;;;;;;30.45;12.80;;;;;;;;;;5107590;27;20039;-79
2022/03/04 08:41:34;;;;;;;27.40;11.27;;;;;;;;;;5095840;27;20043;-78
2022/03/04 08:43:59;;;;;;;35.38;13.10;;;;;;;;;;5079103;28;20036;-80
2022/03/04 08:46:25;;;;;;;29.02;13.30;;;;;;;;;;5104669;28;20035;-77
2022/03/04 08:48:51;;;;;;;46.42;13.93;;;;;;;;;;5105043;27;20040;-76
2022/03/04 08:51:17;;;;;;;39.85;12.55;;;;;;;;;;5107417;27;20043;-76
2022/03/04 08:53:42;;;;;;;30.42;13.23;;;;;;;;;;5104896;27;20080;-77
2022/03/04 08:56:07;;;;;;;27.90;10.90;;;;;;;;;;5096176;28;20496;-78
2022/03/04 08:58:34;;;;;;;24.98;10.57;;;;;;;;;;5103809;27;20078;-76
2022/03/04 09:00:59;;;;;;;20.42;8.65;;;;;;;;;;5102591;27;20051;-77
2022/03/04 09:03:25;;;;;;;22.13;8.75;;;;;;;;;;5093024;27;20040;-76
2022/03/04 09:05:50;;;;;;;21.58;8.93;;;;;;;;;;5098337;27;20039;-76
2022/03/04 09:08:15;;;;;;;22.33;9.63;;;;;;;;;;5101686;28;20707;-75
2022/03/04 09:10:41;;;;;;;21.33;9.43;;;;;;;;;;5097463;27;20048;-75
2022/03/04 09:13:07;;;;;;;22.92;9.45;;;;;;;;;;5100104;28;20552;-74
2022/03/04 09:15:32;;;;;;;27.88;10.18;;;;;;;;;;5103025;27;20093;-75
2022/03/04 09:17:58;;;;;;;31.38;10.57;;;;;;;;;;5096093;27;20043;-74
2022/03/04 09:20:23;;;;;;;22.45;10.43;;;;;;;;;;5084769;28;20028;-74
2022/03/04 09:22:49;;;;;;;23.20;10.02;;;;;;;;;;5106995;28;20084;-78
2022/03/04 09:25:14;;;;;;;23.58;9.55;;;;;;;;;;5100345;27;20501;-76
2022/03/04 09:27:41;;;;;;;20.85;9.43;;;;;;;;;;5099670;27;20111;-75
2022/03/04 09:30:08;;;;;;;14.02;6.55;;;;;;;;;;5101728;27;20118;-75
2022/03/04 09:32:34;;;;;;;24.83;10.18;;;;;;;;;;5098214;27;20032;-79
2022/03/04 09:34:59;;;;;;;23.40;9.82;;;;;;;;;;5108579;28;20026;-77
2022/03/04 09:37:24;;;;;;;22.88;9.50;;;;;;;;;;5103020;27;20165;-77
2022/03/04 09:39:50;;;;;;;20.73;8.45;;;;;;;;;;5105728;28;20048;-74
2022/03/04 09:42:16;;;;;;;18.13;7.55;;;;;;;;;;5105939;27;20495;-74
2022/03/04 09:44:42;;;;;;;21.63;9.10;;;;;;;;;;5110635;27;20568;-79
2022/03/04 09:47:10;;;;;;;25.52;9.88;;;;;;;;;;5107525;28;20102;-80
2022/03/04 09:49:36;;;;;;;24.15;10.05;;;;;;;;;;5098867;27;20051;-76
2022/03/04 09:52:06;;;;;;;21.55;9.32;;;;;;;;;;5101037;27;20088;-75
2022/03/04 09:54:32;;;;;;;20.23;8.90;;;;;;;;;;5110289;27;20086;-76
2022/03/04 09:56:58;;;;;;;24.48;9.50;;;;;;;;;;5108982;27;20483;-73
2022/03/04 09:59:24;;;;;;;20.75;9.60;;;;;;;;;;5102070;27;20032;-73
2022/03/04 10:01:50;;;;;;;22.10;9.68;;;;;;;;;;5107264;28;20054;-77
2022/03/04 10:04:16;;;;;;;16.77;7.03;;;;;;;;;;5108083;28;20055;-79
2022/03/04 10:06:46;;;;;;;22.17;9.65;;;;;;;;;;5111217;27;20130;-78
2022/03/04 10:09:13;;;;;;;21.48;8.95;;;;;;;;;;5107276;27;20623;-79
2022/03/04 10:11:39;;;;;;;22.95;10.25;;;;;;;;;;5108200;27;20032;-76
2022/03/04 10:14:13;;;;;;;23.30;10.55;;;;;;;;;;5105689;28;20038;-77
2022/03/04 10:16:41;;;;;;;23.70;10.98;;;;;;;;;;5103083;28;20035;-75
2022/03/04 10:19:13;;;;;;;23.13;10.65;;;;;;;;;;5107475;27;20070;-71
2022/03/04 10:22:00;;;;;;;21.42;9.98;;;;;;;;;;5105452;27;20553;-72
2022/03/04 10:24:35;;;;;;;17.35;8.65;;;;;;;;;;5098670;27;20459;-73
2022/03/04 10:27:03;;;;;;;18.83;8.52;;;;;;;;;;5076020;28;20050;-74
2022/03/04 10:29:31;;;;;;;24.00;10.10;;;;;;;;;;5082178;28;20069;-71
2022/03/04 10:32:05;;;;;;;17.00;8.40;;;;;;;;;;5089384;28;20024;-73
2022/03/04 10:34:42;;;;;;;23.17;9.90;;;;;;;;;;5099997;27;20677;-73
2022/03/04 10:37:07;;;;;;;24.83;10.52;;;;;;;;;;5106600;28;20040;-73
2022/03/04 10:39:32;;;;;;;26.17;10.35;;;;;;;;;;5099252;28;20089;-75
2022/03/04 10:41:58;;;;;;;22.35;10.02;;;;;;;;;;5101807;27;20074;-72
2022/03/04 10:44:24;;;;;;;23.95;10.40;;;;;;;;;;5107978;28;20027;-71
2022/03/04 10:46:54;;;;;;;25.45;10.95;;;;;;;;;;5086509;28;20047;-70
2022/03/04 10:49:27;;;;;;;20.75;9.93;;;;;;;;;;5089275;28;20105;-71
2022/03/04 10:52:06;;;;;;;24.98;11.88;;;;;;;;;;5083162;28;20025;-71
2022/03/04 10:54:32;;;;;;;23.60;10.55;;;;;;;;;;5086830;28;20028;-70
2022/03/04 10:57:03;;;;;;;27.02;11.43;;;;;;;;;;5087283;28;20050;-71
2022/03/04 10:59:28;;;;;;;31.27;12.00;;;;;;;;;;5088275;27;20032;-71
2022/03/04 11:01:55;;;;;;;24.50;10.93;;;;;;;;;;5087261;28;20481;-71
2022/03/04 11:04:22;;;;;;;25.45;10.43;;;;;;;;;;5099122;27;20488;-71
2022/03/04 11:06:49;;;;;;;26.38;11.20;;;;;;;;;;5089462;27;20793;-71
2022/03/04 11:09:16;;;;;;;28.77;10.65;;;;;;;;;;5083790;28;20080;-70
2022/03/04 11:11:45;;;;;;;23.23;11.10;;;;;;;;;;5076487;27;20036;-70
2022/03/04 11:14:14;;;;;;;29.23;11.55;;;;;;;;;;5079219;28;20596;-70
2022/03/04 11:16:40;;;;;;;24.60;12.20;;;;;;;;;;5078553;28;20044;-70
2022/03/04 11:19:07;;;;;;;22.45;11.23;;;;;;;;;;5080160;28;20068;-74
2022/03/04 11:21:33;;;;;;;27.67;12.25;;;;;;;;;;5088417;28;20048;-73
2022/03/04 11:23:59;;;;;;;26.55;12.40;;;;;;;;;;5098778;27;20062;-71
2022/03/04 11:26:27;;;;;;;21.25;10.30;;;;;;;;;;5105964;27;20031;-69
2022/03/04 11:28:54;;;;;;;29.02;11.32;;;;;;;;;;5105104;27;20082;-71
2022/03/04 11:31:21;;;;;;;27.17;12.70;;;;;;;;;;5099120;27;20460;-71
2022/03/04 11:33:52;;;;;;;27.73;12.38;;;;;;;;;;5101876;27;20054;-71
2022/03/04 11:36:25;;;;;;;25.45;11.68;;;;;;;;;;5099645;27;20051;-71
2022/03/04 11:38:50;;;;;;;27.77;12.40;;;;;;;;;;5098703;28;20036;-74
2022/03/04 11:41:19;;;;;;;25.52;12.02;;;;;;;;;;5068526;28;20029;-72
2022/03/04 11:43:54;;;;;;;28.60;12.00;;;;;;;;;;5081958;28;20041;-71
2022/03/04 11:46:21;;;;;;;28.65;12.68;;;;;;;;;;5083509;28;20047;-70
2022/03/04 11:48:48;;;;;;;27.10;12.38;;;;;;;;;;5084187;28;20429;-70
2022/03/04 11:51:20;;;;;;;28.73;12.65;;;;;;;;;;5082726;28;20525;-70
2022/03/04 11:54:24;;;;;;;25.43;11.70;;;;;;;;;;5081160;28;20059;-71
2022/03/04 11:56:53;;;;;;;27.27;11.35;;;;;;;;;;5084766;28;20274;-70
2022/03/04 11:59:22;;;;;;;25.58;12.27;;;;;;;;;;5078901;28;20048;-72
2022/03/04 12:01:48;;;;;;;29.42;12.45;;;;;;;;;;5082366;28;20868;-71
2022/03/04 12:04:17;;;;;;;27.75;13.45;;;;;;;;;;5075945;28;20085;-71
2022/03/04 12:07:04;;;;;;;25.65;12.05;;;;;;;;;;5089832;27;20047;-71
2022/03/04 12:09:31;;;;;;;28.50;13.35;;;;;;;;;;5104687;27;20543;-73
2022/03/04 12:12:09;;;;;;;32.05;14.30;;;;;;;;;;5101943;27;20536;-73
2022/03/04 12:14:35;;;;;;;33.35;13.15;;;;;;;;;;5080901;27;20768;-73
2022/03/04 12:17:00;;;;;;;35.00;13.73;;;;;;;;;;5101418;28;20027;-73
2022/03/04 12:19:30;;;;;;;33.00;14.48;;;;;;;;;;5099798;27;20126;-76
2022/03/04 12:21:57;;;;;;;29.77;13.15;;;;;;;;;;5102487;28;20043;-76
2022/03/04 12:24:34;;;;;;;29.20;12.65;;;;;;;;;;5107699;27;20028;-76
2022/03/04 12:27:00;;;;;;;31.95;14.15;;;;;;;;;;5107892;27;20042;-76
2022/03/04 12:29:46;;;;;;;34.17;13.25;;;;;;;;;;5105348;27;20087;-76
2022/03/04 12:32:13;;;;;;;36.60;14.80;;;;;;;;;;5096893;27;20110;-76
2022/03/04 12:34:52;;;;;;;35.45;15.07;;;;;;;;;;5101505;28;20039;-77
2022/03/04 12:37:18;;;;;;;35.95;15.98;;;;;;;;;;5100055;27;20126;-75
2022/03/04 12:39:50;;;;;;;37.53;16.25;;;;;;;;;;5099155;28;20113;-76
2022/03/04 12:42:18;;;;;;;32.77;14.30;;;;;;;;;;5097692;27;20040;-76
2022/03/04 12:44:45;;;;;;;38.00;15.00;;;;;;;;;;5103396;27;20062;-80
2022/03/04 12:47:11;;;;;;;40.20;17.40;;;;;;;;;;5104235;28;20089;-77
2022/03/04 12:49:39;;;;;;;38.85;17.20;;;;;;;;;;5100853;27;20031;-74
2022/03/04 12:52:05;;;;;;;43.30;17.48;;;;;;;;;;5105391;27;20532;-74
2022/03/04 12:54:33;;;;;;;40.90;16.95;;;;;;;;;;5101339;27;20046;-73
2022/03/04 12:57:02;;;;;;;43.60;16.05;;;;;;;;;;5093362;27;20048;-73
2022/03/04 12:59:30;;;;;;;42.17;17.08;;;;;;;;;;5083591;28;20031;-73
2022/03/04 13:01:56;;;;;;;40.22;17.33;;;;;;;;;;5103524;27;20077;-73
2022/03/04 13:04:22;;;;;;;44.17;18.60;;;;;;;;;;5102149;27;20035;-73
2022/03/04 13:06:58;;;;;;;46.25;18.13;;;;;;;;;;5096195;28;20136;-74
2022/03/04 13:09:23;;;;;;;46.38;19.05;;;;;;;;;;5098110;28;20045;-73
2022/03/04 13:11:49;;;;;;;45.92;19.48;;;;;;;;;;5093997;28;20065;-73
2022/03/04 13:14:16;;;;;;;43.55;18.85;;;;;;;;;;5095486;28;20077;-74
2022/03/04 13:16:47;;;;;;;44.33;18.17;;;;;;;;;;5103783;28;20047;-73
2022/03/04 13:19:18;;;;;;;47.58;19.23;;;;;;;;;;5100457;28;20577;-74
2022/03/04 13:22:04;;;;;;;37.00;16.98;;;;;;;;;;5106367;28;20043;-74
2022/03/04 13:24:30;;;;;;;43.97;17.17;;;;;;;;;;5113222;27;20120;-73
2022/03/04 13:27:07;;;;;;;41.90;17.33;;;;;;;;;;5099015;27;20066;-73
2022/03/04 13:29:44;;;;;;;40.33;16.70;;;;;;;;;;5105949;28;20066;-73
2022/03/04 13:32:15;;;;;;;38.38;16.73;;;;;;;;;;5106687;28;20039;-74
2022/03/04 13:34:44;;;;;;;41.28;15.27;;;;;;;;;;5098895;28;20416;-74
2022/03/04 13:37:11;;;;;;;42.38;16.52;;;;;;;;;;5100120;28;20471;-75
2022/03/04 13:39:40;;;;;;;35.95;15.18;;;;;;;;;;5104233;28;20028;-73
2022/03/04 13:42:09;;;;;;;38.33;15.00;;;;;;;;;;5104647;27;20046;-76
2022/03/04 13:44:46;;;;;;;45.15;18.15;;;;;;;;;;5097679;28;20427;-69
2022/03/04 13:47:11;;;;;;;38.10;16.80;;;;;;;;;;5091200;28;20024;-70
2022/03/04 13:49:55;;;;;;;37.08;15.82;;;;;;;;;;5099410;27;20050;-71
2022/03/04 13:52:21;;;;;;;;;;;;;;;;;;5098294;28;20114;-70
2022/03/04 13:54:55;;;;;;;36.45;15.95;;;;;;;;;;5100488;28;20028;-72
2022/03/04 13:57:28;;;;;;;40.03;14.98;;;;;;;;;;5091649;28;20127;-72
2022/03/04 13:59:58;;;;;;;38.10;16.35;;;;;;;;;;5102696;27;20100;-73
2022/03/04 14:02:26;;;;;;;46.20;16.15;;;;;;;;;;5110593;27;20478;-72
2022/03/04 14:04:57;;;;;;;35.30;14.95;;;;;;;;;;5108766;28;20024;-71
2022/03/04 14:07:24;;;;;;;34.58;15.40;;;;;;;;;;5098096;28;21030;-74
2022/03/04 14:09:56;;;;;;;32.58;14.80;;;;;;;;;;5104462;28;20608;-73
2022/03/04 14:12:22;;;;;;;35.78;14.68;;;;;;;;;;5104926;27;20162;-73
2022/03/04 14:14:49;;;;;;;34.55;14.57;;;;;;;;;;5101847;27;20102;-72
2022/03/04 14:17:14;;;;;;;33.53;14.60;;;;;;;;;;5102815;28;20038;-74